Time;durP1;ratioP1;P1;durP2;ratioP2;P2;SDS_P1;SDS_P2;PMS_P1;PMS_P2;Temp;Humidity;BMP_temperature;BMP_pressure;BME280_temperature;BME280_humidity;BME280_pressure;Samples;Min_cycle;Max_cycle;Signal;HPM_P1;HPM_P2
2023/01/06 00:00:28;;;;;;;56.45;20.35;;;9.80;99.90;;;;;;5006557;28;20038;-63
2023/01/06 00:02:53;;;;;;;46.58;19.25;;;9.80;99.90;;;;;;5018602;28;20042;-61
2023/01/06 00:05:19;;;;;;;46.58;18.85;;;9.80;99.90;;;;;;5006518;28;20044;-62
2023/01/06 00:07:48;;;;;;;49.28;19.17;;;9.80;99.90;;;;;;5003858;28;20034;-62
2023/01/06 00:10:14;;;;;;;57.83;19.33;;;9.70;99.90;;;;;;5004825;28;20101;-62
2023/01/06 00:12:42;;;;;;;50.08;19.45;;;9.80;99.90;;;;;;5006632;28;20577;-62
2023/01/06 00:15:08;;;;;;;57.00;20.33;;;9.80;99.90;;;;;;5014753;28;20049;-61
2023/01/06 00:17:33;;;;;;;49.92;19.63;;;9.80;99.90;;;;;;5023891;28;20039;-62
2023/01/06 00:19:59;;;;;;;52.92;20.35;;;9.70;99.90;;;;;;5003755;28;20045;-61
2023/01/06 00:22:24;;;;;;;51.70;19.75;;;9.80;99.90;;;;;;5004735;28;20048;-61
2023/01/06 00:24:50;;;;;;;64.97;20.98;;;9.80;99.90;;;;;;5008504;28;20036;-61
2023/01/06 00:27:16;;;;;;;54.50;20.23;;;9.80;99.90;;;;;;5010311;28;20033;-61
2023/01/06 00:29:41;;;;;;;60.88;21.52;;;9.80;99.90;;;;;;5010346;28;20066;-62
2023/01/06 00:32:07;;;;;;;51.95;18.75;;;9.80;99.90;;;;;;5022824;28;20400;-61
2023/01/06 00:34:32;;;;;;;55.80;20.00;;;9.70;99.90;;;;;;5021235;28;20394;-61
2023/01/06 00:36:58;;;;;;;49.28;20.15;;;9.80;99.90;;;;;;5019744;28;20091;-61
2023/01/06 00:39:23;;;;;;;55.63;20.50;;;9.70;99.90;;;;;;5017144;28;20046;-62
2023/01/06 00:42:04;;;;;;;49.45;19.42;;;9.70;99.90;;;;;;5027308;28;20051;-61
2023/01/06 00:44:39;;;;;;;53.47;19.90;;;9.80;99.90;;;;;;5023981;28;20037;-61
2023/01/06 00:47:07;;;;;;;55.13;20.35;;;9.80;99.90;;;;;;5029983;28;22782;-61
2023/01/06 00:49:33;;;;;;;50.55;20.08;;;9.80;99.90;;;;;;5030673;28;20053;-61
2023/01/06 00:51:59;;;;;;;39.60;17.77;;;9.70;99.90;;;;;;5025149;28;20041;-61
2023/01/06 00:54:24;;;;;;;42.90;17.95;;;9.80;99.90;;;;;;5024804;28;20029;-61
2023/01/06 00:56:51;;;;;;;41.17;18.00;;;9.90;99.90;;;;;;5017505;28;20096;-62
2023/01/06 00:59:19;;;;;;;42.72;17.10;;;9.80;99.90;;;;;;5014520;28;20579;-61
2023/01/06 01:01:47;;;;;;;41.50;17.83;;;9.90;99.90;;;;;;5007373;28;20374;-62
2023/01/06 01:04:13;;;;;;;42.58;17.63;;;9.90;99.90;;;;;;5006032;28;20034;-61
2023/01/06 01:06:41;;;;;;;35.88;16.45;;;9.90;99.90;;;;;;5008848;28;20038;-60
2023/01/06 01:09:06;;;;;;;33.80;15.75;;;9.90;99.90;;;;;;5005723;28;20034;-61
2023/01/06 01:14:18;;;;;;;34.35;16.88;;;9.90;99.90;;;;;;5027706;28;20053;-60
2023/01/06 01:16:44;;;;;;;37.42;16.88;;;9.90;99.90;;;;;;5007656;28;20073;-60
2023/01/06 01:19:10;;;;;;;36.67;16.08;;;9.90;99.90;;;;;;5008696;28;20071;-61
2023/01/06 01:21:36;;;;;;;32.47;14.25;;;9.80;99.90;;;;;;5008326;28;20049;-61
2023/01/06 01:24:01;;;;;;;19.33;11.60;;;9.80;99.90;;;;;;5011973;28;20036;-62
2023/01/06 01:26:27;;;;;;;25.38;12.32;;;9.80;99.90;;;;;;5009729;28;20041;-62
2023/01/06 01:28:52;;;;;;;27.25;12.63;;;9.80;99.90;;;;;;5000943;28;20742;-60
2023/01/06 01:31:19;;;;;;;23.23;12.80;;;9.80;99.90;;;;;;5006783;28;20412;-61
2023/01/06 01:33:44;;;;;;;28.52;12.77;;;9.80;99.90;;;;;;5021510;28;20168;-60
2023/01/06 01:36:15;;;;;;;24.15;12.20;;;9.80;99.90;;;;;;5009839;28;20045;-62
2023/01/06 01:38:41;;;;;;;25.75;11.95;;;9.80;99.90;;;;;;5014593;28;20478;-61
2023/01/06 01:41:08;;;;;;;25.02;11.57;;;9.80;99.90;;;;;;5017083;28;20049;-62
2023/01/06 01:43:54;;;;;;;23.13;11.23;;;9.80;99.90;;;;;;5018595;28;20037;-61
2023/01/06 01:46:28;;;;;;;18.27;10.52;;;9.80;99.90;;;;;;5023501;28;20037;-61
2023/01/06 01:48:58;;;;;;;22.83;11.38;;;9.80;99.90;;;;;;5020897;28;20083;-61
2023/01/06 01:51:32;;;;;;;19.80;10.50;;;9.80;99.90;;;;;;5027248;28;20075;-61
2023/01/06 01:54:01;;;;;;;21.38;11.18;;;9.80;99.90;;;;;;5023551;28;20042;-61
2023/01/06 01:56:30;;;;;;;19.48;10.68;;;9.80;99.90;;;;;;5016442;28;20050;-61
2023/01/06 01:59:12;;;;;;;20.65;10.40;;;9.80;99.90;;;;;;5008671;28;20069;-61
2023/01/06 02:01:37;;;;;;;17.58;10.05;;;9.80;99.90;;;;;;5015262;28;20416;-61
2023/01/06 02:04:03;;;;;;;19.50;10.45;;;9.80;99.90;;;;;;5006272;28;20037;-62
2023/01/06 02:06:30;;;;;;;20.45;10.75;;;9.80;99.90;;;;;;5008795;28;20030;-61
2023/01/06 02:09:19;;;;;;;20.98;10.60;;;9.80;99.90;;;;;;5008494;28;20052;-61
2023/01/06 02:11:49;;;;;;;19.10;9.55;;;9.80;99.90;;;;;;5007462;28;20041;-62
2023/01/06 02:14:22;;;;;;;;;;;9.80;99.90;;;;;;5009082;28;20050;-62
2023/01/06 02:17:00;;;;;;;17.35;8.95;;;9.80;99.90;;;;;;5008005;28;19970;-61
2023/01/06 02:19:36;;;;;;;21.00;9.60;;;9.70;99.90;;;;;;5007526;28;20041;-61
2023/01/06 02:22:25;;;;;;;17.77;9.95;;;9.70;99.90;;;;;;5007794;28;20077;-61
2023/01/06 02:25:14;;;;;;;19.27;8.88;;;9.70;99.90;;;;;;5010062;28;20042;-61
2023/01/06 02:28:12;;;;;;;15.98;8.27;;;9.70;99.90;;;;;;5008720;28;20137;-61
2023/01/06 02:31:12;;;;;;;19.92;8.73;;;9.80;99.90;;;;;;5004412;28;20052;-61
2023/01/06 02:33:49;;;;;;;18.40;8.70;;;9.70;99.90;;;;;;5020012;28;20052;-61
2023/01/06 02:36:36;;;;;;;22.20;9.30;;;9.70;99.90;;;;;;5016674;28;20037;-61
2023/01/06 02:39:32;;;;;;;16.45;8.02;;;9.70;99.90;;;;;;5021562;28;20053;-62
2023/01/06 02:42:25;;;;;;;24.17;9.18;;;9.70;99.90;;;;;;5022924;28;20045;-61
2023/01/06 02:45:02;;;;;;;16.58;8.38;;;9.70;99.90;;;;;;5017745;28;20045;-61
2023/01/06 02:48:02;;;;;;;17.25;8.77;;;9.70;99.90;;;;;;5019398;28;20065;-61
2023/01/06 02:51:15;;;;;;;16.13;7.75;;;9.70;99.90;;;;;;5017464;28;20045;-61
2023/01/06 02:54:26;;;;;;;16.08;8.32;;;9.70;99.90;;;;;;5008136;28;20037;-61
2023/01/06 02:57:22;;;;;;;14.77;8.40;;;9.70;99.90;;;;;;4990499;28;20509;-61
2023/01/06 03:00:01;;;;;;;15.25;8.00;;;9.70;99.90;;;;;;4981594;28;20125;-60
2023/01/06 03:02:29;;;;;;;16.88;8.75;;;9.80;99.90;;;;;;5011254;28;20052;-62
2023/01/06 03:04:57;;;;;;;15.98;7.45;;;9.70;99.90;;;;;;5019957;28;20068;-61
2023/01/06 03:07:25;;;;;;;15.65;8.10;;;9.80;99.90;;;;;;5019054;28;20048;-61
2023/01/06 03:09:52;;;;;;;12.48;7.75;;;9.80;99.90;;;;;;5019267;28;20037;-61
2023/01/06 03:12:26;;;;;;;18.25;7.32;;;9.70;99.90;;;;;;5026804;28;20070;-61
2023/01/06 03:14:55;;;;;;;12.50;7.53;;;9.70;99.90;;;;;;5021133;28;20044;-61
2023/01/06 03:17:22;;;;;;;9.95;6.60;;;9.70;99.90;;;;;;5010105;28;20075;-62
2023/01/06 03:19:48;;;;;;;14.32;6.85;;;9.70;99.90;;;;;;5016013;28;20500;-62
2023/01/06 03:22:15;;;;;;;12.77;7.22;;;9.70;99.90;;;;;;5019689;28;20054;-62
2023/01/06 03:24:42;;;;;;;12.88;6.80;;;9.70;99.90;;;;;;5017854;28;20025;-60
2023/01/06 03:27:08;;;;;;;16.38;6.78;;;9.70;99.90;;;;;;5011779;28;20038;-61
2023/01/06 03:29:34;;;;;;;11.25;6.93;;;9.70;99.90;;;;;;5013303;28;20041;-61
2023/01/06 03:32:21;;;;;;;13.65;6.32;;;9.70;99.90;;;;;;5020536;28;20052;-61
2023/01/06 03:35:00;;;;;;;9.90;5.78;;;9.70;99.90;;;;;;5016892;28;20034;-61
2023/01/06 03:37:41;;;;;;;13.25;6.38;;;9.70;99.90;;;;;;5013493;28;20045;-61
2023/01/06 03:40:12;;;;;;;12.02;6.25;;;9.70;99.90;;;;;;5017191;28;20382;-61
2023/01/06 03:45:43;;;;;;;12.65;6.13;;;9.70;99.90;;;;;;5010294;28;20616;-61
2023/01/06 03:48:31;;;;;;;11.15;5.97;;;9.70;99.90;;;;;;5012143;28;20038;-61
2023/01/06 03:51:19;;;;;;;9.48;5.82;;;9.70;99.90;;;;;;5017469;28;20421;-61
2023/01/06 03:53:53;;;;;;;9.35;6.13;;;9.60;99.90;;;;;;5015508;28;20037;-61
2023/01/06 03:56:27;;;;;;;12.93;5.97;;;9.70;99.90;;;;;;5008605;28;20064;-61
2023/01/06 03:58:57;;;;;;;12.82;7.30;;;9.70;99.90;;;;;;5033990;28;20041;-60
2023/01/06 04:01:25;;;;;;;15.88;7.05;;;9.70;99.90;;;;;;5021333;28;20112;-60
2023/01/06 04:03:52;;;;;;;11.38;7.18;;;9.70;99.90;;;;;;5012525;28;20040;-61
2023/01/06 04:06:18;;;;;;;11.30;7.28;;;9.70;99.90;;;;;;5015419;28;20131;-61
2023/01/06 04:08:43;;;;;;;11.18;6.97;;;9.60;99.90;;;;;;5006484;28;20129;-61
2023/01/06 04:12:37;;;;;;;15.00;7.65;;;9.60;99.90;;;;;;5022456;28;20045;-61
2023/01/06 04:13:54;;;;;;;13.43;7.88;;;9.70;99.90;;;;;;5014109;28;20168;-60
2023/01/06 04:16:20;;;;;;;13.65;7.45;;;9.70;99.90;;;;;;5024232;28;20129;-60
2023/01/06 04:18:46;;;;;;;13.40;8.73;;;9.70;99.90;;;;;;5018942;28;20033;-62
2023/01/06 04:21:12;;;;;;;12.68;9.00;;;9.60;99.90;;;;;;5023746;28;20107;-63
2023/01/06 04:23:37;;;;;;;13.07;8.75;;;9.70;99.90;;;;;;5013144;28;22326;-60
2023/01/06 04:26:03;;;;;;;14.18;9.18;;;9.60;99.90;;;;;;5011255;28;20485;-61
2023/01/06 04:28:28;;;;;;;16.38;9.05;;;9.60;99.90;;;;;;5025190;28;20040;-61
2023/01/06 04:30:58;;;;;;;14.32;9.45;;;9.60;99.90;;;;;;5018656;28;20093;-61
2023/01/06 04:33:24;;;;;;;17.08;10.20;;;9.60;99.90;;;;;;5012660;28;20047;-60
2023/01/06 04:35:49;;;;;;;12.65;9.43;;;9.60;99.90;;;;;;5008956;28;20042;-60
2023/01/06 04:38:15;;;;;;;14.70;9.32;;;9.60;99.90;;;;;;5014291;28;20508;-60
2023/01/06 04:40:41;;;;;;;14.63;10.05;;;9.70;99.90;;;;;;5012263;28;20489;-60
2023/01/06 04:43:12;;;;;;;15.60;10.15;;;9.70;99.90;;;;;;5014411;28;20099;-61
2023/01/06 04:45:39;;;;;;;18.48;10.02;;;9.70;99.90;;;;;;5012451;28;20064;-60
2023/01/06 04:48:05;;;;;;;13.27;9.65;;;9.70;99.90;;;;;;5023242;28;20042;-61
2023/01/06 04:50:31;;;;;;;15.35;9.88;;;9.70;99.90;;;;;;5013805;28;20374;-60
2023/01/06 04:52:57;;;;;;;16.45;10.07;;;9.70;99.90;;;;;;5011567;28;20046;-61
2023/01/06 04:55:22;;;;;;;14.18;9.18;;;9.70;99.90;;;;;;5010666;28;20041;-61
2023/01/06 04:57:48;;;;;;;12.25;9.10;;;9.80;99.90;;;;;;5006065;28;20026;-61
2023/01/06 05:00:14;;;;;;;16.20;9.50;;;9.80;99.90;;;;;;5003294;28;20605;-59
2023/01/06 05:02:40;;;;;;;17.33;9.45;;;9.80;99.90;;;;;;5004319;28;20049;-61
2023/01/06 05:05:06;;;;;;;13.43;8.82;;;9.80;99.90;;;;;;5004363;28;20060;-61
2023/01/06 05:07:32;;;;;;;16.77;9.90;;;9.80;99.90;;;;;;5006499;28;20406;-60
2023/01/06 05:09:57;;;;;;;13.73;10.10;;;9.80;99.90;;;;;;5009319;28;20048;-61
2023/01/06 05:12:23;;;;;;;18.38;11.07;;;9.70;99.90;;;;;;5012043;28;20052;-61
2023/01/06 05:14:48;;;;;;;16.02;10.07;;;9.70;99.90;;;;;;5007886;28;20048;-61
2023/01/06 05:17:14;;;;;;;14.43;9.75;;;9.60;99.90;;;;;;5011638;28;20044;-61
2023/01/06 05:19:41;;;;;;;17.05;10.18;;;9.60;99.90;;;;;;5012293;28;20401;-61
2023/01/06 05:22:07;;;;;;;14.32;9.23;;;9.60;99.90;;;;;;5027747;28;20057;-60
2023/01/06 05:24:33;;;;;;;17.48;9.38;;;9.60;99.90;;;;;;5018690;28;20033;-60
2023/01/06 05:26:58;;;;;;;12.52;9.18;;;9.60;99.90;;;;;;5022280;28;20065;-61
2023/01/06 05:29:24;;;;;;;11.95;8.10;;;9.60;99.90;;;;;;5016745;28;20052;-60
2023/01/06 05:31:50;;;;;;;10.95;8.27;;;9.60;99.90;;;;;;5023177;28;20487;-61
2023/01/06 05:34:15;;;;;;;11.77;7.72;;;9.70;99.90;;;;;;5020910;28;20053;-61
2023/01/06 05:36:41;;;;;;;10.32;7.43;;;9.70;99.90;;;;;;5026868;28;20040;-61
2023/01/06 05:39:06;;;;;;;12.23;6.50;;;9.70;99.90;;;;;;5017255;28;20482;-61
2023/01/06 05:41:32;;;;;;;12.20;6.13;;;9.70;99.90;;;;;;5023779;28;20029;-61
2023/01/06 05:43:57;;;;;;;9.85;5.88;;;9.70;99.90;;;;;;5011736;28;20486;-62
2023/01/06 05:46:23;;;;;;;7.05;5.70;;;9.80;99.90;;;;;;5014725;28;20038;-60
2023/01/06 05:48:48;;;;;;;7.20;5.57;;;9.80;99.90;;;;;;5024605;28;20048;-62
2023/01/06 05:51:15;;;;;;;9.02;5.55;;;9.80;99.90;;;;;;5021582;28;20047;-61
2023/01/06 05:53:44;;;;;;;9.65;5.20;;;9.80;99.90;;;;;;5011729;28;20049;-61
2023/01/06 05:56:12;;;;;;;10.52;4.70;;;9.80;99.90;;;;;;5021039;28;20068;-60
2023/01/06 05:58:41;;;;;;;9.90;4.30;;;9.90;99.90;;;;;;5012073;28;20041;-60
2023/01/06 06:01:18;;;;;;;6.60;4.55;;;9.80;99.90;;;;;;5020663;28;20048;-62
2023/01/06 06:03:44;;;;;;;10.02;4.72;;;9.80;99.90;;;;;;5008476;28;20045;-61
2023/01/06 06:06:10;;;;;;;8.07;4.45;;;9.80;99.90;;;;;;5007663;28;20037;-62
2023/01/06 06:08:36;;;;;;;7.45;4.97;;;9.80;99.90;;;;;;5009370;28;20625;-61
2023/01/06 06:11:07;;;;;;;7.60;5.00;;;9.70;99.90;;;;;;5006610;28;20030;-60
2023/01/06 06:13:33;;;;;;;8.57;5.05;;;9.80;99.90;;;;;;5008050;28;20092;-61
2023/01/06 06:16:07;;;;;;;9.00;5.22;;;9.70;99.90;;;;;;5011244;28;20044;-61
2023/01/06 06:18:33;;;;;;;7.72;5.85;;;9.70;99.90;;;;;;5008035;28;20037;-63
2023/01/06 06:21:03;;;;;;;10.65;6.25;;;9.70;99.90;;;;;;5010877;28;20518;-61
2023/01/06 06:23:29;;;;;;;8.30;6.00;;;9.70;99.90;;;;;;5007116;28;20583;-63
2023/01/06 06:25:55;;;;;;;11.55;6.70;;;9.60;99.90;;;;;;5011396;28;20041;-62
2023/01/06 06:28:21;;;;;;;11.20;6.57;;;9.50;99.90;;;;;;5005689;28;20053;-61
2023/01/06 06:30:46;;;;;;;14.25;6.50;;;9.30;99.90;;;;;;5007427;28;20037;-64
2023/01/06 06:33:12;;;;;;;11.18;7.18;;;9.30;99.90;;;;;;5009386;28;20044;-61
2023/01/06 06:35:37;;;;;;;11.43;7.93;;;9.30;99.90;;;;;;5017333;28;20041;-61
2023/01/06 06:38:03;;;;;;;12.05;7.03;;;9.30;99.90;;;;;;5024731;28;20236;-63
2023/01/06 06:40:28;;;;;;;11.20;6.90;;;9.20;99.90;;;;;;5021854;28;20084;-61
2023/01/06 06:42:54;;;;;;;12.00;7.22;;;9.20;99.90;;;;;;5011321;28;20049;-60
2023/01/06 06:45:19;;;;;;;10.50;7.53;;;9.20;99.90;;;;;;5023911;28;20091;-61
2023/01/06 06:47:45;;;;;;;13.35;7.65;;;9.20;99.90;;;;;;5017175;28;20033;-61
2023/01/06 06:50:12;;;;;;;14.63;7.65;;;9.20;99.90;;;;;;5013774;28;20128;-61
2023/01/06 06:52:37;;;;;;;11.90;6.75;;;9.20;99.90;;;;;;5019108;28;20042;-62
2023/01/06 06:55:03;;;;;;;10.20;6.80;;;9.20;99.90;;;;;;5013945;28;20556;-62
2023/01/06 06:57:29;;;;;;;12.70;7.63;;;9.20;99.90;;;;;;5015108;28;20408;-62
2023/01/06 06:59:55;;;;;;;13.30;7.05;;;9.20;99.90;;;;;;5010982;28;20041;-62
2023/01/06 07:02:20;;;;;;;13.30;7.40;;;9.20;99.90;;;;;;5020762;28;20045;-62
2023/01/06 07:04:46;;;;;;;10.70;7.07;;;9.20;99.90;;;;;;5009354;28;20042;-62
2023/01/06 07:07:12;;;;;;;13.27;8.18;;;9.20;99.90;;;;;;5011359;28;20034;-63
2023/01/06 07:09:37;;;;;;;14.02;7.80;;;9.20;99.90;;;;;;5017559;28;20123;-63
2023/01/06 07:12:03;;;;;;;12.30;7.93;;;9.20;99.90;;;;;;5022583;28;20049;-63
2023/01/06 07:14:29;;;;;;;14.65;8.75;;;9.20;99.90;;;;;;5013062;28;20038;-61
2023/01/06 07:16:54;;;;;;;15.40;8.50;;;9.20;99.90;;;;;;5029153;28;20041;-61
2023/01/06 07:19:20;;;;;;;13.80;8.82;;;9.20;99.90;;;;;;5021219;28;20102;-61
2023/01/06 07:21:45;;;;;;;14.70;8.80;;;9.20;99.90;;;;;;5026514;28;20047;-62
2023/01/06 07:24:11;;;;;;;11.73;7.68;;;9.20;99.90;;;;;;5014122;28;20038;-62
2023/01/06 07:26:36;;;;;;;14.95;8.68;;;9.20;99.90;;;;;;5019943;28;20049;-63
2023/01/06 07:29:02;;;;;;;12.60;8.18;;;9.20;99.90;;;;;;5022950;28;20082;-63
2023/01/06 07:31:27;;;;;;;15.48;9.02;;;9.20;99.90;;;;;;5029009;28;20059;-63
2023/01/06 07:33:53;;;;;;;15.82;9.43;;;9.20;99.90;;;;;;5025733;28;20037;-62
2023/01/06 07:36:18;;;;;;;14.60;8.77;;;9.30;99.90;;;;;;5025197;28;20064;-63
2023/01/06 07:38:44;;;;;;;12.30;8.30;;;9.20;99.90;;;;;;5019647;28;20041;-62
2023/01/06 07:41:09;;;;;;;19.13;9.13;;;9.20;99.90;;;;;;5029670;28;20045;-64
2023/01/06 07:43:35;;;;;;;18.17;9.57;;;9.20;99.90;;;;;;5023786;28;20041;-63
2023/01/06 07:46:01;;;;;;;14.52;8.15;;;9.20;99.90;;;;;;5028430;28;20077;-63
2023/01/06 07:48:26;;;;;;;13.95;8.30;;;9.30;99.90;;;;;;5019229;28;20037;-63
2023/01/06 07:50:52;;;;;;;15.55;8.35;;;9.30;99.90;;;;;;5024218;28;20061;-63
2023/01/06 07:53:17;;;;;;;16.15;9.13;;;9.30;99.90;;;;;;5018523;28;20037;-65
2023/01/06 07:55:50;;;;;;;13.52;8.23;;;9.30;99.90;;;;;;5025180;28;20056;-63
2023/01/06 07:58:17;;;;;;;14.45;8.63;;;9.40;99.90;;;;;;5019510;28;20531;-65
2023/01/06 08:00:42;;;;;;;15.77;8.05;;;9.30;99.90;;;;;;5028725;28;20037;-63
2023/01/06 08:03:10;;;;;;;14.02;9.00;;;9.40;99.90;;;;;;5026195;28;20497;-63
2023/01/06 08:05:37;;;;;;;11.98;7.05;;;9.30;99.90;;;;;;5027857;28;20087;-64
2023/01/06 08:08:04;;;;;;;7.22;5.25;;;9.40;99.90;;;;;;5027867;28;20428;-66
2023/01/06 08:10:29;;;;;;;10.57;5.50;;;9.40;99.90;;;;;;5026056;28;20098;-64
2023/01/06 08:12:55;;;;;;;7.25;5.15;;;9.40;99.90;;;;;;5026898;28;20045;-65
2023/01/06 08:15:20;;;;;;;6.22;4.65;;;9.40;99.90;;;;;;5025444;28;20144;-64
2023/01/06 08:17:46;;;;;;;7.35;4.57;;;9.40;99.90;;;;;;5008405;28;20038;-65
2023/01/06 08:20:11;;;;;;;9.70;4.35;;;9.40;99.90;;;;;;5007337;28;20561;-64
2023/01/06 08:22:37;;;;;;;7.50;3.92;;;9.30;99.90;;;;;;5012451;28;20567;-62
2023/01/06 08:25:02;;;;;;;8.25;3.35;;;9.30;99.90;;;;;;5006628;28;20030;-63
2023/01/06 08:27:28;;;;;;;9.60;2.88;;;9.10;99.90;;;;;;5008413;28;20030;-65
2023/01/06 08:29:54;;;;;;;6.45;2.50;;;9.00;99.90;;;;;;5013656;28;20482;-64
2023/01/06 08:32:20;;;;;;;7.07;2.50;;;8.90;99.90;;;;;;5024462;28;20068;-65
2023/01/06 08:34:47;;;;;;;5.85;2.28;;;8.80;99.90;;;;;;5017418;28;20037;-63
2023/01/06 08:37:13;;;;;;;5.55;2.25;;;8.70;99.90;;;;;;5012160;28;20045;-63
2023/01/06 08:39:38;;;;;;;6.03;2.25;;;8.60;99.90;;;;;;5020540;28;20500;-62
2023/01/06 08:42:04;;;;;;;7.28;2.10;;;8.50;99.90;;;;;;5024394;28;20612;-64
2023/01/06 08:44:30;;;;;;;4.43;1.95;;;8.50;99.90;;;;;;5023024;28;20041;-64
2023/01/06 08:46:56;;;;;;;2.95;1.70;;;8.50;99.90;;;;;;5017814;28;20033;-63
2023/01/06 08:49:21;;;;;;;6.38;1.70;;;8.40;99.90;;;;;;5022442;28;20046;-64
2023/01/06 08:51:47;;;;;;;7.20;1.70;;;8.40;99.90;;;;;;5027592;28;20532;-63
2023/01/06 08:54:13;;;;;;;4.97;1.85;;;8.40;99.90;;;;;;5028669;28;20083;-63
2023/01/06 08:56:39;;;;;;;7.57;1.88;;;8.40;99.90;;;;;;5023843;28;20118;-64
2023/01/06 08:59:05;;;;;;;5.40;1.70;;;8.30;99.90;;;;;;5019362;28;20473;-65
2023/01/06 09:01:33;;;;;;;7.45;1.80;;;8.20;99.90;;;;;;5020603;28;20604;-64
2023/01/06 09:04:01;;;;;;;6.57;1.45;;;8.30;99.90;;;;;;5022853;28;20045;-63
2023/01/06 09:06:27;;;;;;;4.57;1.17;;;8.20;99.90;;;;;;5032298;28;20117;-64
2023/01/06 09:08:54;;;;;;;6.03;1.42;;;8.30;99.90;;;;;;5029022;28;20053;-63
2023/01/06 09:11:20;;;;;;;4.40;1.38;;;8.20;99.90;;;;;;5022551;28;20044;-64
2023/01/06 09:13:46;;;;;;;5.57;1.30;;;8.20;99.90;;;;;;5029440;28;20042;-64
2023/01/06 09:16:12;;;;;;;3.67;1.20;;;8.20;99.90;;;;;;5024417;28;20469;-63
2023/01/06 09:18:38;;;;;;;4.28;1.27;;;8.20;99.90;;;;;;5031263;28;20508;-63
2023/01/06 09:21:04;;;;;;;6.05;1.90;;;8.20;99.90;;;;;;5026545;28;20068;-64
2023/01/06 09:23:30;;;;;;;6.13;1.60;;;8.20;99.90;;;;;;5025664;28;20042;-64
2023/01/06 09:25:56;;;;;;;6.00;1.40;;;8.20;99.90;;;;;;5029898;28;20511;-63
2023/01/06 09:28:23;;;;;;;5.70;1.42;;;8.20;99.90;;;;;;5032017;28;20029;-63
2023/01/06 09:30:48;;;;;;;5.15;1.55;;;8.10;99.90;;;;;;5027565;28;20041;-63
2023/01/06 09:33:15;;;;;;;3.58;0.98;;;8.10;99.90;;;;;;5022119;28;20480;-64
2023/01/06 09:35:42;;;;;;;7.65;1.30;;;8.00;99.90;;;;;;5025413;28;20175;-64
2023/01/06 09:38:08;;;;;;;5.28;1.38;;;8.00;99.90;;;;;;5030619;28;20045;-63
2023/01/06 09:40:49;;;;;;;4.90;1.10;;;8.00;99.90;;;;;;5026474;28;20034;-63
2023/01/06 09:43:29;;;;;;;5.00;1.00;;;8.00;99.90;;;;;;5025648;28;20045;-63
2023/01/06 09:45:59;;;;;;;8.50;1.10;;;8.10;99.90;;;;;;5023162;28;20053;-63
2023/01/06 09:48:30;;;;;;;9.23;1.38;;;8.00;99.90;;;;;;5015619;28;20045;-63
2023/01/06 09:51:04;;;;;;;9.75;1.25;;;8.10;99.90;;;;;;5029059;28;20674;-62
2023/01/06 09:53:41;;;;;;;8.82;1.30;;;8.10;99.90;;;;;;5028446;28;20033;-62
2023/01/06 09:56:13;;;;;;;6.85;1.20;;;8.00;99.90;;;;;;5025816;28;20060;-62
2023/01/06 09:58:44;;;;;;;10.88;1.63;;;8.00;99.90;;;;;;5032581;28;20052;-61
2023/01/06 10:01:15;;;;;;;9.75;1.58;;;8.00;99.90;;;;;;5027816;28;20045;-62
2023/01/06 10:03:44;;;;;;;9.02;1.25;;;8.00;99.90;;;;;;5029923;28;20441;-61
2023/01/06 10:06:28;;;;;;;6.97;1.13;;;8.10;99.90;;;;;;5017692;28;20087;-62
2023/01/06 10:09:13;;;;;;;3.67;1.00;;;8.10;99.90;;;;;;5032576;28;20135;-62
2023/01/06 10:11:54;;;;;;;6.32;1.13;;;8.10;99.90;;;;;;5031320;28;20543;-62
2023/01/06 10:14:55;;;;;;;7.80;1.30;;;8.20;99.90;;;;;;5015481;28;20041;-61
2023/01/06 10:17:30;;;;;;;9.80;1.58;;;8.20;99.90;;;;;;5023662;28;20069;-62
2023/01/06 10:20:10;;;;;;;11.07;1.00;;;8.20;99.90;;;;;;5031066;28;20068;-61
2023/01/06 10:22:50;;;;;;;;;;;8.10;99.90;;;;;;5027668;28;20047;-63
2023/01/06 10:25:45;;;;;;;7.05;1.00;;;8.20;99.90;;;;;;5029519;28;19960;-62
2023/01/06 10:28:34;;;;;;;5.47;1.08;;;8.20;99.90;;;;;;5025909;28;20124;-62
2023/01/06 10:31:05;;;;;;;7.07;1.55;;;8.20;99.90;;;;;;5032482;28;20393;-61
2023/01/06 10:33:36;;;;;;;10.13;1.63;;;8.30;99.90;;;;;;5045361;28;20052;-62
2023/01/06 10:36:02;;;;;;;8.88;1.35;;;8.50;99.90;;;;;;5033375;28;20048;-61
2023/01/06 10:38:39;;;;;;;6.32;1.17;;;8.50;99.90;;;;;;5024014;28;20509;-63
2023/01/06 10:41:40;;;;;;;6.28;1.20;;;8.60;99.90;;;;;;5030335;28;20065;-61
2023/01/06 10:44:10;;;;;;;5.10;1.20;;;8.60;99.90;;;;;;5030046;28;20042;-61
2023/01/06 10:46:37;;;;;;;4.87;1.27;;;8.60;99.90;;;;;;5029870;28;20093;-61
2023/01/06 10:49:07;;;;;;;4.32;1.40;;;8.60;99.90;;;;;;5029999;28;20478;-61
2023/01/06 10:51:42;;;;;;;9.20;1.30;;;8.60;99.90;;;;;;5030680;28;20037;-61
2023/01/06 10:54:11;;;;;;;6.88;1.40;;;8.60;99.90;;;;;;5030434;28;20279;-62
2023/01/06 10:56:38;;;;;;;7.82;1.30;;;8.70;99.90;;;;;;5036830;28;20057;-62
2023/01/06 10:59:09;;;;;;;7.65;1.17;;;8.70;99.90;;;;;;5027935;28;20056;-61
2023/01/06 11:01:50;;;;;;;8.45;1.15;;;8.80;99.90;;;;;;5023119;28;20065;-61
2023/01/06 11:04:17;;;;;;;4.07;0.85;;;8.80;99.90;;;;;;5021136;28;20081;-62
2023/01/06 11:06:47;;;;;;;11.55;1.30;;;8.80;99.90;;;;;;5027645;28;20041;-61
2023/01/06 11:09:25;;;;;;;8.73;1.48;;;8.80;99.90;;;;;;5016263;28;20053;-61
2023/01/06 11:11:53;;;;;;;5.57;1.15;;;8.80;99.90;;;;;;5021275;28;20095;-60
2023/01/06 11:14:23;;;;;;;9.07;1.25;;;8.80;99.90;;;;;;5030088;28;20136;-61
2023/01/06 11:17:13;;;;;;;8.45;1.30;;;8.80;99.90;;;;;;5026112;28;20414;-61
2023/01/06 11:19:44;;;;;;;12.00;1.38;;;8.90;99.90;;;;;;5030507;28;20036;-61
2023/01/06 11:22:36;;;;;;;5.50;1.10;;;8.90;99.90;;;;;;5034018;28;20491;-61
2023/01/06 11:25:03;;;;;;;6.50;1.30;;;9.00;99.90;;;;;;5026845;28;20057;-61
2023/01/06 11:27:28;;;;;;;9.70;1.48;;;9.00;99.90;;;;;;5030770;28;20379;-60
2023/01/06 11:29:54;;;;;;;6.00;1.33;;;9.00;99.90;;;;;;5023994;28;20056;-61
2023/01/06 11:32:23;;;;;;;6.72;1.33;;;9.00;99.90;;;;;;5028697;28;20046;-61
2023/01/06 11:34:58;;;;;;;11.73;1.45;;;9.00;99.90;;;;;;5032618;28;20125;-59
2023/01/06 11:37:56;;;;;;;7.13;1.50;;;9.00;99.90;;;;;;5025860;28;20045;-61
2023/01/06 11:40:33;;;;;;;9.80;1.60;;;8.90;99.90;;;;;;5035506;28;20072;-60
2023/01/06 11:43:02;;;;;;;8.13;1.60;;;9.00;99.90;;;;;;5030117;28;20079;-61
2023/01/06 11:45:50;;;;;;;6.75;1.40;;;9.00;99.90;;;;;;5030257;28;20482;-61
2023/01/06 11:48:19;;;;;;;5.82;1.20;;;9.00;99.90;;;;;;5015705;28;20383;-61
2023/01/06 11:50:53;;;;;;;6.18;1.27;;;9.00;99.90;;;;;;5032749;28;20033;-60
2023/01/06 11:53:20;;;;;;;6.90;1.73;;;9.00;99.90;;;;;;5027640;28;20052;-60
2023/01/06 11:56:05;;;;;;;6.45;1.83;;;9.00;99.90;;;;;;5040375;28;20061;-61
2023/01/06 11:58:51;;;;;;;9.20;1.77;;;9.00;99.90;;;;;;5033529;28;20076;-60
2023/01/06 12:01:36;;;;;;;6.90;1.30;;;9.00;99.90;;;;;;5029803;28;20032;-62
2023/01/06 12:04:33;;;;;;;8.60;1.70;;;9.00;99.90;;;;;;5022295;28;20132;-60
2023/01/06 12:07:10;;;;;;;5.70;1.50;;;9.10;99.90;;;;;;5027124;28;20141;-60
2023/01/06 12:09:39;;;;;;;7.45;1.65;;;9.00;99.90;;;;;;5029436;28;20030;-60
2023/01/06 12:12:08;;;;;;;7.97;1.63;;;9.00;99.90;;;;;;5025557;28;20088;-60
2023/01/06 12:14:36;;;;;;;5.68;1.20;;;9.00;99.90;;;;;;5013946;28;20026;-61
2023/01/06 12:17:07;;;;;;;7.28;1.42;;;9.00;99.90;;;;;;5028640;28;20047;-60
2023/01/06 12:19:36;;;;;;;9.48;1.50;;;9.00;99.90;;;;;;5017971;28;20053;-61
2023/01/06 12:22:02;;;;;;;10.45;1.85;;;9.00;99.90;;;;;;5019806;28;20055;-59
2023/01/06 12:24:31;;;;;;;8.15;1.15;;;8.90;99.90;;;;;;5030469;28;20116;-61
2023/01/06 12:26:59;;;;;;;7.38;1.30;;;8.90;99.90;;;;;;5023465;28;20385;-60
2023/01/06 12:29:25;;;;;;;9.70;1.65;;;8.90;99.90;;;;;;5014169;28;20046;-60
2023/01/06 12:32:13;;;;;;;10.82;1.85;;;8.90;99.90;;;;;;5029405;28;20061;-60
2023/01/06 12:34:44;;;;;;;7.72;1.55;;;8.90;99.90;;;;;;5030091;28;20800;-61
2023/01/06 12:37:30;;;;;;;5.03;1.60;;;8.80;99.90;;;;;;5033671;28;20144;-61
2023/01/06 12:40:13;;;;;;;9.05;1.95;;;8.80;99.90;;;;;;5021686;28;20440;-60
2023/01/06 12:43:12;;;;;;;5.40;1.40;;;8.70;99.90;;;;;;5037004;28;20542;-59
2023/01/06 12:45:55;;;;;;;5.28;1.27;;;8.70;99.90;;;;;;5030064;28;20516;-61
2023/01/06 12:48:43;;;;;;;8.23;1.50;;;8.70;99.90;;;;;;5033038;28;20050;-61
2023/01/06 12:51:19;;;;;;;6.00;1.55;;;8.70;99.90;;;;;;5017773;28;20087;-60
2023/01/06 12:53:55;;;;;;;5.70;1.90;;;8.70;99.90;;;;;;5038563;28;20041;-61
2023/01/06 12:56:39;;;;;;;8.07;1.20;;;8.70;99.90;;;;;;5030114;28;20061;-60
2023/01/06 12:59:44;;;;;;;8.30;1.50;;;8.80;99.90;;;;;;5019461;28;20053;-60
2023/01/06 13:02:41;;;;;;;6.25;1.60;;;8.80;99.90;;;;;;5026054;28;20132;-60
2023/01/06 13:05:28;;;;;;;6.63;1.80;;;8.80;99.90;;;;;;5028684;28;20041;-60
2023/01/06 13:08:05;;;;;;;9.65;1.33;;;8.80;99.90;;;;;;5039443;28;20034;-60
2023/01/06 13:11:05;;;;;;;7.00;1.50;;;8.90;99.90;;;;;;5027419;28;20132;-60
2023/01/06 13:13:58;;;;;;;7.97;1.55;;;8.80;99.90;;;;;;5029461;28;20045;-61
2023/01/06 13:16:33;;;;;;;9.35;2.05;;;8.80;99.90;;;;;;5030879;28;20076;-61